Data for 11/18/2015

Time Sea-Level Adjusted Pressure Absolute Pressure Temperature Relative Humidity Dew Point   
(mb) (inHg) (mb) (inHg) (C) (F) (%) (C) (F)
00:05 1002 29.59 831 24.54 7.3 45.1 43 -4.6 23.8
00:10 1002 29.59 831 24.54 7.5 45.5 40 -5.3 22.5
00:15 1002 29.59 831 24.54 7.6 45.7 40 -5.1 22.8
00:20 1001 29.56 831 24.54 7.6 45.8 40 -5.1 22.8
00:25 1001 29.56 830 24.51 7.6 45.7 39 -5.5 22.1
00:30 1001 29.56 830 24.51 7.9 46.2 40 -4.8 23.4
00:35 1001 29.56 830 24.51 7.6 45.6 41 -4.8 23.3
00:40 1001 29.56 830 24.51 7.8 46 39 -5.2 22.6
00:45 1001 29.56 830 24.51 8 46.3 39 -5.1 22.9
00:50 1001 29.56 830 24.51 8.1 46.7 39 -4.9 23.3
00:55 1000 29.53 830 24.51 8.2 46.8 39 -5 23.1
01:00 1000 29.53 830 24.51 8.1 46.5 39 -5.2 22.7
01:05 1000 29.53 829 24.48 8.2 46.7 40 -4.7 23.5
01:10 1000 29.53 829 24.48 8.2 46.7 39 -5 23
01:15 1000 29.53 829 24.48 8.2 46.7 38 -5.4 22.3
01:20 1000 29.53 829 24.48 8.3 47 39 -4.9 23.3
01:25 999 29.5 829 24.48 8.2 46.7 39 -5 23
01:30 999 29.5 829 24.48 8.2 46.8 38 -5.2 22.6
01:35 999 29.5 828 24.45 8.6 47.5 37 -5.1 22.8
01:40 999 29.5 828 24.45 8.7 47.6 37 -5.3 22.5
01:45 999 29.5 828 24.45 8.8 47.8 36 -5.5 22.1
01:50 999 29.5 828 24.45 9 48.1 36 -5.2 22.7
01:55 999 29.5 828 24.45 8.9 48 36 -5.2 22.6
02:00 999 29.5 828 24.45 8.8 47.9 36 -5.3 22.4
02:05 998 29.47 828 24.45 8.8 47.9 36 -5.4 22.3
02:10 998 29.47 828 24.45 8.9 48 35 -5.6 21.9
02:15 998 29.47 827 24.42 9 48.2 36 -5.3 22.4
02:20 998 29.47 827 24.42 8.9 48 35 -5.7 21.8
02:25 998 29.47 827 24.42 9 48.2 35 -5.5 22.1
02:30 998 29.47 827 24.42 9 48.3 34 -6 21.1
02:35 998 29.47 827 24.42 9 48.2 36 -5.4 22.2
02:40 998 29.47 827 24.42 8.8 47.8 36 -5.3 22.4
02:45 998 29.47 827 24.42 8.8 47.8 35 -5.9 21.3
02:50 997 29.44 827 24.42 8.9 48 34 -6.1 21.1
02:55 998 29.47 827 24.42 9 48.3 35 -5.6 22
03:00 998 29.47 827 24.42 8.9 48.1 35 -5.8 21.5
03:05 998 29.47 827 24.42 9 48.2 35 -5.6 21.8
03:10 998 29.47 827 24.42 8.8 47.9 37 -5.2 22.6
03:15 998 29.47 827 24.42 8.7 47.6 36 -5.4 22.3
03:20 997 29.44 827 24.42 8.6 47.4 39 -4.8 23.4
03:25 997 29.44 827 24.42 8.3 46.9 39 -4.9 23.1
03:30 998 29.47 827 24.42 8.2 46.8 38 -5.1 22.8
03:35 998 29.47 827 24.42 8.3 46.9 39 -4.8 23.4
03:40 998 29.47 827 24.42 8.1 46.6 39 -4.9 23.2
03:45 998 29.47 827 24.42 7.9 46.2 49 -2.2 28.1
03:50 998 29.47 827 24.42 6.8 44.3 55 -1.6 29.1
03:55 998 29.47 828 24.45 6.3 43.3 54 -2.2 28
04:00 998 29.47 828 24.45 6.3 43.4 54 -2.3 27.8
04:05 998 29.47 828 24.45 6.2 43.2 52 -2.9 26.7
04:10 999 29.5 828 24.45 6.3 43.4 51 -3.1 26.5
04:15 999 29.5 828 24.45 6.3 43.4 52 -2.8 26.9
04:20 999 29.5 828 24.45 5.9 42.6 60 -1.3 29.7
04:25 1000 29.53 829 24.48 5.2 41.3 64 -1.1 29.9
04:30 1001 29.56 830 24.51 4.9 40.8 71 0 32
04:35 1002 29.59 831 24.54 2.9 37.3 84 0.4 32.8
04:40 1002 29.59 831 24.54 1.2 34.2 89 -0.3 31.4
04:45 1002 29.59 831 24.54 0.7 33.3 91 -0.6 30.9
04:50 1002 29.59 831 24.54 0.6 33 92 -0.6 30.9
04:55 1002 29.59 831 24.54 0.7 33.2 90 -0.8 30.5
05:00 1002 29.59 831 24.54 1 33.8 86 -1.1 30
05:05 1002 29.59 832 24.57 1.3 34.3 84 -1.2 29.9
05:10 1002 29.59 832 24.57 1.5 34.7 81 -1.4 29.5
05:15 1003 29.62 832 24.57 1.5 34.8 79 -1.7 28.9
05:20 1003 29.62 832 24.57 1 33.9 79 -2.2 28.1
05:25 1003 29.62 833 24.6 0.7 33.3 78 -2.6 27.3
05:30 1004 29.65 833 24.6 0.5 32.9 78 -2.9 26.8
05:35 1004 29.65 833 24.6 0.4 32.8 79 -2.9 26.8
05:40 1004 29.65 834 24.63 0.5 32.8 77 -3.1 26.3
05:45 1005 29.68 834 24.63 0.5 32.9 74 -3.5 25.6
05:50 1005 29.68 834 24.63 0.5 32.9 71 -4.1 24.6
05:55 1005 29.68 834 24.63 0.6 33.1 62 -5.8 21.6
06:00 1005 29.68 835 24.66 1.1 34 57 -6.6 20.2
06:05 1006 29.71 835 24.66 1.3 34.3 56 -6.6 20.2
06:10 1006 29.71 835 24.66 1.2 34.2 53 -7.3 18.9
06:15 1006 29.71 836 24.69 1.1 34 50 -8.2 17.2
06:20 1007 29.74 836 24.69 1 33.9 47 -9 15.9
06:25 1007 29.74 836 24.69 1 33.8 47 -9.1 15.6
06:30 1007 29.74 837 24.72 1 33.7 47 -9.2 15.5
06:35 1008 29.77 837 24.72 0.9 33.6 47 -9.1 15.6
06:40 1008 29.77 837 24.72 0.8 33.4 49 -8.7 16.3
06:45 1008 29.77 837 24.72 0.5 32.9 51 -8.5 16.7
06:50 1008 29.77 837 24.72 -0.1 31.9 54 -8.2 17.2
06:55 1008 29.77 837 24.72 -0.5 31.1 56 -8.2 17.3
07:00 1008 29.77 837 24.72 -0.7 30.7 48 -10.3 13.4
07:05 1008 29.77 837 24.72 -0.4 31.3 40 -12.4 9.7
07:10 1008 29.77 837 24.72 -0.2 31.7 38 -12.9 8.8
07:15 1008 29.77 837 24.72 -0.2 31.6 38 -12.9 8.9
07:20 1008 29.77 837 24.72 -0.3 31.5 39 -12.6 9.4
07:25 1009 29.8 838 24.75 -0.4 31.2 41 -12.3 9.9
07:30 1009 29.8 838 24.75 -0.5 31.1 40 -12.4 9.7
07:35 1009 29.8 838 24.75 -0.6 30.9 42 -12.1 10.3
07:40 1009 29.8 838 24.75 -0.6 30.8 41 -12.4 9.7
07:45 1010 29.83 839 24.78 -0.7 30.8 42 -11.9 10.5
07:50 1010 29.83 839 24.78 -0.8 30.6 44 -11.5 11.3
07:55 1010 29.83 839 24.78 -0.9 30.4 45 -11.4 11.6
08:00 1010 29.83 839 24.78 -1 30.3 43 -11.9 10.5
08:05 1010 29.83 839 24.78 -0.9 30.3 44 -11.8 10.7
08:10 1010 29.83 839 24.78 -1 30.2 44 -11.6 11
08:15 1010 29.83 839 24.78 -1.1 30 47 -11.2 11.8
08:20 1010 29.83 839 24.78 -1.3 29.7 46 -11.5 11.3
08:25 1010 29.83 839 24.78 -1.3 29.6 47 -11.2 11.9
08:30 1010 29.83 840 24.81 -1.5 29.4 47 -11.2 11.8
08:35 1010 29.83 840 24.81 -1.5 29.3 47 -11.4 11.4
08:40 1010 29.83 840 24.81 -1.6 29.2 46 -11.7 11
08:45 1010 29.83 840 24.81 -1.6 29.2 46 -11.7 10.9
08:50 1011 29.85 840 24.81 -1.5 29.3 47 -11.5 11.3
08:55 1011 29.85 840 24.81 -1.7 29 47 -11.4 11.4
09:00 1011 29.85 840 24.81 -1.7 28.9 47 -11.6 11.1
09:05 1011 29.85 840 24.81 -1.7 29 47 -11.5 11.3
09:10 1011 29.85 840 24.81 -1.7 29 46 -11.8 10.8
09:15 1011 29.85 841 24.83 -1.7 29 47 -11.5 11.2
09:20 1011 29.85 841 24.83 -1.7 28.9 47 -11.6 11.2
09:25 1012 29.88 841 24.83 -1.7 28.9 46 -11.9 10.6
09:30 1012 29.88 841 24.83 -1.7 28.9 48 -11.5 11.4
09:35 1012 29.88 841 24.83 -1.8 28.8 48 -11.4 11.4
09:40 1012 29.88 841 24.83 -1.8 28.7 48 -11.4 11.6
09:45 1012 29.88 841 24.83 -1.9 28.7 49 -11.3 11.6
09:50 1012 29.88 841 24.83 -1.9 28.7 48 -11.5 11.2
09:55 1012 29.88 841 24.83 -1.6 29.1 47 -11.4 11.5
10:00 1012 29.88 841 24.83 -1.2 29.8 46 -11.6 11.1
10:05 1012 29.88 842 24.86 -0.7 30.7 45 -11.3 11.7
10:10 1012 29.88 842 24.86 -0.5 31 44 -11.3 11.6
10:15 1012 29.88 842 24.86 -0.6 31 45 -11.1 12
10:20 1012 29.88 842 24.86 -0.3 31.5 45 -10.8 12.6
10:25 1013 29.91 842 24.86 -0.1 31.9 44 -10.8 12.5
10:30 1013 29.91 842 24.86 -0.1 31.9 42 -11.4 11.6
10:35 1013 29.91 842 24.86 -0.3 31.5 44 -11.2 11.8
10:40 1013 29.91 842 24.86 -0.6 31 45 -11.2 11.9
10:45 1013 29.91 842 24.86 -0.7 30.8 46 -10.9 12.4
10:50 1013 29.91 842 24.86 -0.7 30.7 44 -11.4 11.5
10:55 1013 29.91 842 24.86 -0.6 30.9 44 -11.5 11.3
11:00 1013 29.91 842 24.86 -0.6 30.9 43 -11.6 11.1
11:05 1013 29.91 842 24.86 -0.4 31.2 42 -11.8 10.8
11:10 1013 29.91 842 24.86 -0.2 31.7 42 -11.6 11.1
11:15 1013 29.91 842 24.86 -0.1 31.8 42 -11.6 11.1
11:20 1013 29.91 842 24.86 -0.1 31.9 42 -11.7 11
11:25 1013 29.91 842 24.86 -0.1 31.7 42 -11.4 11.4
11:30 1013 29.91 842 24.86 -0.2 31.6 42 -11.8 10.8
11:35 1013 29.91 842 24.86 -0.2 31.6 42 -11.5 11.3
11:40 1013 29.91 842 24.86 -0.1 31.8 42 -11.4 11.4
11:45 1013 29.91 843 24.89 0.2 32.4 43 -11 12.2
11:50 1013 29.91 843 24.89 0.8 33.4 40 -11.2 11.9
11:55 1014 29.94 843 24.89 0.9 33.7 39 -11.4 11.4
12:00 1014 29.94 843 24.89 1 33.7 40 -11.1 12
12:05 1014 29.94 843 24.89 0.9 33.7 39 -11.5 11.3
12:10 1014 29.94 843 24.89 1.1 34 36 -12.4 9.7
12:15 1014 29.94 843 24.89 1.4 34.6 38 -11.3 11.6
12:20 1014 29.94 843 24.89 1.5 34.7 36 -12.1 10.3
12:25 1014 29.94 843 24.89 1.4 34.6 38 -11.3 11.6
12:30 1014 29.94 843 24.89 1.5 34.6 39 -11.2 11.9
12:35 1014 29.94 843 24.89 1.4 34.5 36 -12.1 10.2
12:40 1014 29.94 843 24.89 1.5 34.7 34 -12.7 9.1
12:45 1014 29.94 843 24.89 1.5 34.7 33 -13 8.7
12:50 1014 29.94 843 24.89 1.5 34.7 32 -13.4 7.8
12:55 1014 29.94 843 24.89 1.6 35 33 -13 8.5
13:00 1014 29.94 843 24.89 1.9 35.3 33 -12.6 9.3
13:05 1014 29.94 843 24.89 2 35.6 34 -12.5 9.5
13:10 1014 29.94 843 24.89 2.1 35.7 33 -12.7 9.2
13:15 1014 29.94 843 24.89 2.1 35.8 32 -13 8.5
13:20 1014 29.94 843 24.89 1.6 34.9 35 -12.2 10
13:25 1014 29.94 844 24.92 0.8 33.5 41 -11 12.1
13:30 1014 29.94 844 24.92 0.2 32.4 45 -10.4 13.3
13:35 1014 29.94 844 24.92 0.2 32.4 46 -10.2 13.7
13:40 1014 29.94 844 24.92 0.6 33.1 41 -11.2 11.9
13:45 1014 29.94 844 24.92 0.8 33.4 42 -10.7 12.8
13:50 1014 29.94 844 24.92 0.5 32.9 42 -11 12.2
13:55 1015 29.97 844 24.92 0.4 32.7 47 -9.7 14.5
14:00 1015 29.97 844 24.92 -0.1 31.7 49 -9.7 14.5
14:05 1015 29.97 844 24.92 -0.3 31.5 48 -10 13.9
14:10 1015 29.97 844 24.92 -0.2 31.7 52 -8.9 15.9
14:15 1015 29.97 844 24.92 -0.2 31.7 52 -8.9 16.1
14:20 1015 29.97 844 24.92 0 32.1 53 -8.5 16.6
14:25 1015 29.97 844 24.92 0.7 33.3 48 -9.2 15.5
14:30 1015 29.97 844 24.92 0.7 33.2 46 -9.8 14.4
14:35 1015 29.97 844 24.92 0.3 32.5 46 -10.1 13.8
14:40 1015 29.97 844 24.92 0.5 32.9 46 -9.9 14.1
14:45 1015 29.97 844 24.92 0.7 33.2 39 -11.8 10.8
14:50 1015 29.97 844 24.92 0.9 33.6 37 -12.4 9.7
14:55 1015 29.97 844 24.92 1.1 34.1 36 -12.3 9.9
15:00 1015 29.97 844 24.92 1 33.9 37 -12 10.5
15:05 1015 29.97 844 24.92 1.5 34.8 37 -11.5 11.3
15:10 1015 29.97 844 24.92 1.8 35.3 35 -12.1 10.3
15:15 1015 29.97 844 24.92 1.4 34.4 34 -12.7 9.1
15:20 1015 29.97 844 24.92 0.9 33.6 36 -12.5 9.5
15:25 1015 29.97 844 24.92 1.2 34.1 34 -13.1 8.5
15:30 1015 29.97 844 24.92 1.1 34 34 -13.1 8.3
15:35 1015 29.97 844 24.92 1.2 34.2 35 -12.6 9.3
15:40 1015 29.97 844 24.92 1 33.8 35 -12.9 8.7
15:45 1015 29.97 844 24.92 1 33.8 35 -12.8 9
15:50 1015 29.97 844 24.92 1 33.9 35 -12.9 8.8
15:55 1015 29.97 844 24.92 0.9 33.5 32 -14.1 6.5
16:00 1015 29.97 844 24.92 1 33.8 34 -13.3 8.1
16:05 1015 29.97 844 24.92 1.5 34.6 33 -13 8.6
16:10 1015 29.97 844 24.92 1.8 35.2 33 -12.8 9
16:15 1015 29.97 844 24.92 1.8 35.2 30 -13.9 7
16:20 1015 29.97 844 24.92 1.2 34.2 31 -14.1 6.6
16:25 1015 29.97 845 24.95 0.9 33.5 32 -14 6.8
16:30 1016 30 845 24.95 1 33.7 33 -13.5 7.8
16:35 1016 30 845 24.95 1 33.9 36 -12.5 9.5
16:40 1016 30 845 24.95 0.7 33.2 37 -12.3 9.8
16:45 1016 30 845 24.95 0.3 32.6 42 -11.3 11.7
16:50 1016 30 845 24.95 0.1 32.2 46 -10.3 13.5
16:55 1016 30 845 24.95 -0.1 31.8 50 -9.4 15.1
17:00 1016 30 846 24.98 -0.4 31.3 51 -9.3 15.3
17:05 1016 30 846 24.98 -0.3 31.5 50 -9.4 15.1
17:10 1017 30.03 846 24.98 0 32.1 50 -9.3 15.3
17:15 1017 30.03 846 24.98 -0.2 31.6 51 -9.2 15.5
17:20 1017 30.03 846 24.98 -0.6 31 51 -9.5 14.9
17:25 1017 30.03 846 24.98 -0.8 30.6 51 -9.6 14.7
17:30 1017 30.03 846 24.98 -1 30.2 52 -9.6 14.7
17:35 1017 30.03 846 24.98 -1.2 29.9 54 -9.4 15.1
17:40 1017 30.03 846 24.98 -1.2 29.8 53 -9.5 14.9
17:45 1017 30.03 846 24.98 -1.2 29.8 54 -9.5 14.9
17:50 1017 30.03 846 24.98 -1.3 29.7 53 -9.6 14.8
17:55 1017 30.03 846 24.98 -1.3 29.6 53 -9.8 14.3
18:00 1017 30.03 846 24.98 -1.3 29.6 53 -9.7 14.5
18:05 1017 30.03 846 24.98 -1.4 29.5 54 -9.6 14.6
18:10 1017 30.03 846 24.98 -1.4 29.5 54 -9.5 14.9
18:15 1017 30.03 847 25.01 -1.4 29.5 54 -9.5 14.9
18:20 1017 30.03 847 25.01 -1.4 29.5 54 -9.5 14.9
18:25 1017 30.03 847 25.01 -1.4 29.5 53 -9.9 14.2
18:30 1018 30.06 847 25.01 -1.4 29.5 53 -9.9 14.2
18:35 1018 30.06 847 25.01 -1.4 29.5 53 -9.7 14.5
18:40 1018 30.06 847 25.01 -1.4 29.5 53 -9.8 14.4
18:45 1018 30.06 847 25.01 -1.5 29.4 54 -9.7 14.5
18:50 1018 30.06 847 25.01 -1.5 29.3 54 -9.6 14.6
18:55 1018 30.06 847 25.01 -1.5 29.3 54 -9.7 14.5
19:00 1018 30.06 847 25.01 -1.6 29.2 54 -9.7 14.6
19:05 1018 30.06 847 25.01 -1.6 29.1 54 -9.7 14.5
19:10 1018 30.06 847 25.01 -1.6 29.1 55 -9.5 14.9
19:15 1018 30.06 847 25.01 -1.7 29 55 -9.5 14.8
19:20 1018 30.06 847 25.01 -1.7 28.9 55 -9.6 14.7
19:25 1018 30.06 847 25.01 -1.8 28.8 56 -9.4 15
19:30 1018 30.06 847 25.01 -1.8 28.8 56 -9.5 14.8
19:35 1018 30.06 847 25.01 -1.8 28.7 56 -9.5 14.9
19:40 1018 30.06 847 25.01 -1.9 28.6 56 -9.4 15
19:45 1018 30.06 847 25.01 -1.9 28.5 57 -9.3 15.2
19:50 1018 30.06 847 25.01 -2 28.4 58 -9.2 15.4
19:55 1018 30.06 847 25.01 -2 28.4 58 -9.1 15.6
20:00 1018 30.06 847 25.01 -2 28.4 59 -9.1 15.7
20:05 1018 30.06 848 25.04 -2.1 28.3 59 -9 15.8
20:10 1018 30.06 848 25.04 -2 28.3 58 -9.1 15.5
20:15 1018 30.06 848 25.04 -2 28.3 57 -9.4 15.1
20:20 1018 30.06 848 25.04 -2.1 28.3 58 -9.3 15.3
20:25 1018 30.06 848 25.04 -2 28.3 58 -9.2 15.4
20:30 1018 30.06 848 25.04 -2 28.4 58 -9.1 15.6
20:35 1018 30.06 848 25.04 -2.2 28.1 60 -9 15.8
20:40 1018 30.06 848 25.04 -2.2 28 60 -9 15.8
20:45 1018 30.06 848 25.04 -2.2 28 60 -8.9 16
20:50 1019 30.09 848 25.04 -2.3 27.9 60 -9 15.7
20:55 1018 30.06 848 25.04 -2.4 27.7 61 -9 15.9
21:00 1019 30.09 848 25.04 -2.4 27.7 62 -8.8 16.2
21:05 1019 30.09 848 25.04 -2.5 27.5 62 -8.7 16.3
21:10 1019 30.09 848 25.04 -2.6 27.3 62 -8.9 16
21:15 1018 30.06 848 25.04 -2.6 27.3 64 -8.6 16.5
21:20 1018 30.06 848 25.04 -2.6 27.3 63 -8.8 16.2
21:25 1018 30.06 848 25.04 -2.7 27.2 63 -8.9 16.1
21:30 1019 30.09 848 25.04 -2.7 27.2 62 -9 15.9
21:35 1019 30.09 848 25.04 -2.7 27.1 63 -8.8 16.1
21:40 1019 30.09 848 25.04 -2.6 27.2 62 -8.9 16.1
21:45 1019 30.09 848 25.04 -2.7 27.2 62 -9 15.8
21:50 1019 30.09 848 25.04 -2.7 27.2 62 -9 15.9
21:55 1019 30.09 848 25.04 -2.6 27.3 61 -9 15.8
22:00 1019 30.09 848 25.04 -2.6 27.3 61 -9.2 15.5
22:05 1019 30.09 848 25.04 -2.6 27.4 59 -9.4 15.1
22:10 1019 30.09 848 25.04 -2.4 27.6 58 -9.7 14.5
22:15 1019 30.09 848 25.04 -2.4 27.8 55 -10.2 13.7
22:20 1019 30.09 848 25.04 -2.3 27.9 55 -10.1 13.8
22:25 1019 30.09 848 25.04 -2.2 28 54 -10.4 13.4
22:30 1019 30.09 848 25.04 -2.2 28 53 -10.5 13.1
22:35 1019 30.09 848 25.04 -2.2 28 51 -11.1 12
22:40 1019 30.09 848 25.04 -2.2 28 52 -10.9 12.4
22:45 1019 30.09 848 25.04 -2.2 28.1 48 -11.8 10.8
22:50 1019 30.09 848 25.04 -2 28.3 47 -11.9 10.6
22:55 1019 30.09 848 25.04 -2 28.5 44 -12.6 9.2
23:00 1019 30.09 848 25.04 -1.9 28.7 44 -12.7 9.2
23:05 1019 30.09 848 25.04 -1.8 28.7 43 -12.9 8.8
23:10 1019 30.09 848 25.04 -1.8 28.8 44 -12.4 9.7
23:15 1019 30.09 848 25.04 -1.9 28.6 46 -12.1 10.2
23:20 1019 30.09 848 25.04 -2 28.4 47 -11.9 10.6
23:25 1019 30.09 848 25.04 -2.2 28.1 48 -11.8 10.8
23:30 1019 30.09 848 25.04 -2.2 28 47 -12 10.4
23:35 1019 30.09 848 25.04 -2.3 27.9 48 -11.7 10.9
23:40 1019 30.09 848 25.04 -2.2 28 48 -12 10.5
23:45 1019 30.09 848 25.04 -2.2 28 48 -11.7 11
23:50 1019 30.09 848 25.04 -2.2 28 48 -11.9 10.6
23:55 1019 30.09 848 25.04 -2.3 27.9 47 -12 10.4
24:00 1019 30.09 848 25.04 -2.3 27.9 49 -11.6 11.2